sensor_id;sensor_type;location;lat;lon;timestamp;temperature;humidity
10812;DHT22;5458;51.496;7.334;2022-10-19T00:01:36;11.10;99.90
10812;DHT22;5458;51.496;7.334;2022-10-19T00:04:03;11.10;99.90
10812;DHT22;5458;51.496;7.334;2022-10-19T00:06:33;11.10;99.90
10812;DHT22;5458;51.496;7.334;2022-10-19T00:09:12;11.10;99.90
10812;DHT22;5458;51.496;7.334;2022-10-19T00:11:40;11.10;99.90
10812;DHT22;5458;51.496;7.334;2022-10-19T00:14:09;11.10;99.90
10812;DHT22;5458;51.496;7.334;2022-10-19T00:16:37;11.00;99.90
10812;DHT22;5458;51.496;7.334;2022-10-19T00:19:06;11.00;99.90
10812;DHT22;5458;51.496;7.334;2022-10-19T00:21:32;11.00;99.90
10812;DHT22;5458;51.496;7.334;2022-10-19T00:23:58;11.00;99.90
10812;DHT22;5458;51.496;7.334;2022-10-19T00:26:24;11.00;99.90
10812;DHT22;5458;51.496;7.334;2022-10-19T00:28:52;10.90;99.90
10812;DHT22;5458;51.496;7.334;2022-10-19T00:31:19;10.90;99.90
10812;DHT22;5458;51.496;7.334;2022-10-19T00:33:45;10.90;99.90
10812;DHT22;5458;51.496;7.334;2022-10-19T00:36:26;10.90;99.90
10812;DHT22;5458;51.496;7.334;2022-10-19T00:38:53;10.90;99.90
10812;DHT22;5458;51.496;7.334;2022-10-19T00:41:20;10.80;99.90
10812;DHT22;5458;51.496;7.334;2022-10-19T00:46:43;10.80;99.90
10812;DHT22;5458;51.496;7.334;2022-10-19T00:49:27;10.70;99.90
10812;DHT22;5458;51.496;7.334;2022-10-19T00:51:56;10.70;99.90
10812;DHT22;5458;51.496;7.334;2022-10-19T00:54:22;10.70;99.90
10812;DHT22;5458;51.496;7.334;2022-10-19T00:56:51;10.70;99.90
10812;DHT22;5458;51.496;7.334;2022-10-19T00:59:19;10.70;99.90
10812;DHT22;5458;51.496;7.334;2022-10-19T01:01:46;10.70;99.90
10812;DHT22;5458;51.496;7.334;2022-10-19T01:04:13;10.70;99.90
10812;DHT22;5458;51.496;7.334;2022-10-19T01:06:39;10.60;99.90
10812;DHT22;5458;51.496;7.334;2022-10-19T01:09:06;10.60;99.90
10812;DHT22;5458;51.496;7.334;2022-10-19T01:20:27;10.50;99.90
10812;DHT22;5458;51.496;7.334;2022-10-19T01:23:28;10.50;99.90
10812;DHT22;5458;51.496;7.334;2022-10-19T01:28:58;10.40;99.90
10812;DHT22;5458;51.496;7.334;2022-10-19T01:31:35;10.40;99.90
10812;DHT22;5458;51.496;7.334;2022-10-19T01:36:44;10.40;99.90
10812;DHT22;5458;51.496;7.334;2022-10-19T01:39:23;10.30;99.90
10812;DHT22;5458;51.496;7.334;2022-10-19T01:47:02;10.30;99.90
10812;DHT22;5458;51.496;7.334;2022-10-19T01:52:03;10.20;99.90
10812;DHT22;5458;51.496;7.334;2022-10-19T01:54:35;10.20;99.90
10812;DHT22;5458;51.496;7.334;2022-10-19T01:57:04;10.10;99.90
10812;DHT22;5458;51.496;7.334;2022-10-19T01:59:31;10.10;99.90
10812;DHT22;5458;51.496;7.334;2022-10-19T02:01:58;10.10;99.90
10812;DHT22;5458;51.496;7.334;2022-10-19T02:04:24;10.00;99.90
10812;DHT22;5458;51.496;7.334;2022-10-19T02:06:52;10.00;99.90
10812;DHT22;5458;51.496;7.334;2022-10-19T02:09:18;10.00;99.90
10812;DHT22;5458;51.496;7.334;2022-10-19T02:11:54;10.00;99.90
10812;DHT22;5458;51.496;7.334;2022-10-19T02:14:28;10.00;99.90
10812;DHT22;5458;51.496;7.334;2022-10-19T02:17:05;9.90;99.90
10812;DHT22;5458;51.496;7.334;2022-10-19T02:19:32;9.90;99.90
10812;DHT22;5458;51.496;7.334;2022-10-19T02:21:58;9.80;99.90
10812;DHT22;5458;51.496;7.334;2022-10-19T02:24:24;9.80;99.90
10812;DHT22;5458;51.496;7.334;2022-10-19T02:26:50;9.80;99.90
10812;DHT22;5458;51.496;7.334;2022-10-19T02:29:16;9.90;99.90
10812;DHT22;5458;51.496;7.334;2022-10-19T02:31:42;9.80;99.90
10812;DHT22;5458;51.496;7.334;2022-10-19T02:34:08;9.80;99.90
10812;DHT22;5458;51.496;7.334;2022-10-19T02:36:35;9.80;99.90
10812;DHT22;5458;51.496;7.334;2022-10-19T02:39:01;9.80;99.90
10812;DHT22;5458;51.496;7.334;2022-10-19T02:44:07;9.70;99.90
10812;DHT22;5458;51.496;7.334;2022-10-19T02:46:38;9.70;99.90
10812;DHT22;5458;51.496;7.334;2022-10-19T02:49:06;9.80;99.90
10812;DHT22;5458;51.496;7.334;2022-10-19T02:51:39;9.70;99.90
10812;DHT22;5458;51.496;7.334;2022-10-19T02:54:07;9.70;99.90
10812;DHT22;5458;51.496;7.334;2022-10-19T02:56:33;9.70;99.90
10812;DHT22;5458;51.496;7.334;2022-10-19T02:59:00;9.70;99.90
10812;DHT22;5458;51.496;7.334;2022-10-19T03:01:25;9.60;99.90
10812;DHT22;5458;51.496;7.334;2022-10-19T03:03:51;9.60;99.90
10812;DHT22;5458;51.496;7.334;2022-10-19T03:06:17;9.60;99.90
10812;DHT22;5458;51.496;7.334;2022-10-19T03:08:43;9.50;99.90
10812;DHT22;5458;51.496;7.334;2022-10-19T03:11:08;9.50;99.90
10812;DHT22;5458;51.496;7.334;2022-10-19T03:13:34;9.50;99.90
10812;DHT22;5458;51.496;7.334;2022-10-19T03:16:08;9.50;99.90
10812;DHT22;5458;51.496;7.334;2022-10-19T03:18:34;9.50;99.90
10812;DHT22;5458;51.496;7.334;2022-10-19T03:21:11;9.50;99.90
10812;DHT22;5458;51.496;7.334;2022-10-19T03:23:37;9.50;99.90
10812;DHT22;5458;51.496;7.334;2022-10-19T03:26:04;9.50;99.90
10812;DHT22;5458;51.496;7.334;2022-10-19T03:28:30;9.50;99.90
10812;DHT22;5458;51.496;7.334;2022-10-19T03:30:56;9.50;99.90
10812;DHT22;5458;51.496;7.334;2022-10-19T03:33:22;9.50;99.90
10812;DHT22;5458;51.496;7.334;2022-10-19T03:35:48;9.50;99.90
10812;DHT22;5458;51.496;7.334;2022-10-19T03:38:14;9.50;99.90
10812;DHT22;5458;51.496;7.334;2022-10-19T03:40:39;9.50;99.90
10812;DHT22;5458;51.496;7.334;2022-10-19T03:43:05;9.50;99.90
10812;DHT22;5458;51.496;7.334;2022-10-19T03:45:31;9.50;99.90
10812;DHT22;5458;51.496;7.334;2022-10-19T03:47:56;9.50;99.90
10812;DHT22;5458;51.496;7.334;2022-10-19T03:50:22;9.50;99.90
10812;DHT22;5458;51.496;7.334;2022-10-19T03:52:48;9.50;99.90
10812;DHT22;5458;51.496;7.334;2022-10-19T03:55:14;9.50;99.90
10812;DHT22;5458;51.496;7.334;2022-10-19T03:57:40;9.50;99.90
10812;DHT22;5458;51.496;7.334;2022-10-19T04:00:07;9.50;99.90
10812;DHT22;5458;51.496;7.334;2022-10-19T04:02:33;9.50;99.90
10812;DHT22;5458;51.496;7.334;2022-10-19T04:04:59;9.50;99.90
10812;DHT22;5458;51.496;7.334;2022-10-19T04:07:24;9.50;99.90
10812;DHT22;5458;51.496;7.334;2022-10-19T04:09:50;9.50;99.90
10812;DHT22;5458;51.496;7.334;2022-10-19T04:12:15;9.40;99.90
10812;DHT22;5458;51.496;7.334;2022-10-19T04:14:41;9.50;99.90
10812;DHT22;5458;51.496;7.334;2022-10-19T04:17:06;9.40;99.90
10812;DHT22;5458;51.496;7.334;2022-10-19T04:19:32;9.40;99.90
10812;DHT22;5458;51.496;7.334;2022-10-19T04:21:57;9.40;99.90
10812;DHT22;5458;51.496;7.334;2022-10-19T04:24:23;9.40;99.90
10812;DHT22;5458;51.496;7.334;2022-10-19T04:26:50;9.30;99.90
10812;DHT22;5458;51.496;7.334;2022-10-19T04:29:17;9.30;99.90
10812;DHT22;5458;51.496;7.334;2022-10-19T04:31:44;9.20;99.90
10812;DHT22;5458;51.496;7.334;2022-10-19T04:34:10;9.20;99.90
10812;DHT22;5458;51.496;7.334;2022-10-19T04:36:36;9.20;99.90
10812;DHT22;5458;51.496;7.334;2022-10-19T04:39:03;9.20;99.90
10812;DHT22;5458;51.496;7.334;2022-10-19T04:41:28;9.20;99.90
10812;DHT22;5458;51.496;7.334;2022-10-19T04:43:59;9.10;99.90
10812;DHT22;5458;51.496;7.334;2022-10-19T04:46:25;9.10;99.90
10812;DHT22;5458;51.496;7.334;2022-10-19T04:48:51;9.10;99.90
10812;DHT22;5458;51.496;7.334;2022-10-19T04:51:17;9.00;99.90
10812;DHT22;5458;51.496;7.334;2022-10-19T04:53:44;9.00;99.90
10812;DHT22;5458;51.496;7.334;2022-10-19T04:56:20;9.00;99.90
10812;DHT22;5458;51.496;7.334;2022-10-19T04:58:46;9.00;99.90
10812;DHT22;5458;51.496;7.334;2022-10-19T05:01:17;9.00;99.90
10812;DHT22;5458;51.496;7.334;2022-10-19T05:03:43;9.00;99.90
10812;DHT22;5458;51.496;7.334;2022-10-19T05:06:10;9.00;99.90
10812;DHT22;5458;51.496;7.334;2022-10-19T05:08:36;9.00;99.90
10812;DHT22;5458;51.496;7.334;2022-10-19T05:11:11;9.00;99.90
10812;DHT22;5458;51.496;7.334;2022-10-19T05:13:37;9.00;99.90
10812;DHT22;5458;51.496;7.334;2022-10-19T05:16:04;9.00;99.90
10812;DHT22;5458;51.496;7.334;2022-10-19T05:18:30;9.00;99.90
10812;DHT22;5458;51.496;7.334;2022-10-19T05:21:06;9.00;99.90
10812;DHT22;5458;51.496;7.334;2022-10-19T05:23:33;9.00;99.90
10812;DHT22;5458;51.496;7.334;2022-10-19T05:28:29;8.90;99.90
10812;DHT22;5458;51.496;7.334;2022-10-19T05:30:54;8.90;99.90
10812;DHT22;5458;51.496;7.334;2022-10-19T05:33:20;8.90;99.90
10812;DHT22;5458;51.496;7.334;2022-10-19T05:35:46;8.90;99.90
10812;DHT22;5458;51.496;7.334;2022-10-19T05:38:11;8.90;99.90
10812;DHT22;5458;51.496;7.334;2022-10-19T05:40:37;8.90;99.90
10812;DHT22;5458;51.496;7.334;2022-10-19T05:43:02;8.80;99.90
10812;DHT22;5458;51.496;7.334;2022-10-19T05:45:28;8.90;99.90
10812;DHT22;5458;51.496;7.334;2022-10-19T05:47:53;8.80;99.90
10812;DHT22;5458;51.496;7.334;2022-10-19T05:50:19;8.80;99.90
10812;DHT22;5458;51.496;7.334;2022-10-19T05:52:44;8.80;99.90
10812;DHT22;5458;51.496;7.334;2022-10-19T05:55:10;8.80;99.90
10812;DHT22;5458;51.496;7.334;2022-10-19T05:57:35;8.80;99.90
10812;DHT22;5458;51.496;7.334;2022-10-19T06:00:03;8.80;99.90
10812;DHT22;5458;51.496;7.334;2022-10-19T06:02:30;8.80;99.90
10812;DHT22;5458;51.496;7.334;2022-10-19T06:04:56;8.80;99.90
10812;DHT22;5458;51.496;7.334;2022-10-19T06:07:21;8.80;99.90
10812;DHT22;5458;51.496;7.334;2022-10-19T06:09:47;8.80;99.90
10812;DHT22;5458;51.496;7.334;2022-10-19T06:12:12;8.80;99.90
10812;DHT22;5458;51.496;7.334;2022-10-19T06:14:38;8.80;99.90
10812;DHT22;5458;51.496;7.334;2022-10-19T06:17:03;8.80;99.90
10812;DHT22;5458;51.496;7.334;2022-10-19T06:19:30;8.80;99.90
10812;DHT22;5458;51.496;7.334;2022-10-19T06:21:56;8.90;99.90
10812;DHT22;5458;51.496;7.334;2022-10-19T06:24:22;8.90;99.90
10812;DHT22;5458;51.496;7.334;2022-10-19T06:26:47;8.90;99.90
10812;DHT22;5458;51.496;7.334;2022-10-19T06:29:13;8.90;99.90
10812;DHT22;5458;51.496;7.334;2022-10-19T06:31:38;8.90;99.90
10812;DHT22;5458;51.496;7.334;2022-10-19T06:34:04;8.90;99.90
10812;DHT22;5458;51.496;7.334;2022-10-19T06:36:30;9.00;99.90
10812;DHT22;5458;51.496;7.334;2022-10-19T06:38:56;9.00;99.90
10812;DHT22;5458;51.496;7.334;2022-10-19T06:41:24;9.10;99.90
10812;DHT22;5458;51.496;7.334;2022-10-19T06:43:50;9.10;99.90
10812;DHT22;5458;51.496;7.334;2022-10-19T06:46:18;9.20;99.90
10812;DHT22;5458;51.496;7.334;2022-10-19T06:49:02;9.30;99.90
10812;DHT22;5458;51.496;7.334;2022-10-19T06:51:29;9.40;99.90
10812;DHT22;5458;51.496;7.334;2022-10-19T06:53:56;9.40;99.90
10812;DHT22;5458;51.496;7.334;2022-10-19T06:56:22;9.50;99.90
10812;DHT22;5458;51.496;7.334;2022-10-19T06:58:49;9.70;99.90
10812;DHT22;5458;51.496;7.334;2022-10-19T07:01:14;9.70;99.90
10812;DHT22;5458;51.496;7.334;2022-10-19T07:03:40;9.80;99.90
10812;DHT22;5458;51.496;7.334;2022-10-19T07:06:09;9.80;99.90
10812;DHT22;5458;51.496;7.334;2022-10-19T07:08:36;9.90;99.90
10812;DHT22;5458;51.496;7.334;2022-10-19T07:11:05;10.00;99.90
10812;DHT22;5458;51.496;7.334;2022-10-19T07:13:32;10.10;99.90
10812;DHT22;5458;51.496;7.334;2022-10-19T07:15:58;10.10;99.90
10812;DHT22;5458;51.496;7.334;2022-10-19T07:18:25;10.10;99.90
10812;DHT22;5458;51.496;7.334;2022-10-19T07:20:59;10.20;99.90
10812;DHT22;5458;51.496;7.334;2022-10-19T07:23:26;10.20;99.90
10812;DHT22;5458;51.496;7.334;2022-10-19T07:25:52;10.20;99.90
10812;DHT22;5458;51.496;7.334;2022-10-19T07:28:20;10.30;99.90
10812;DHT22;5458;51.496;7.334;2022-10-19T07:30:46;10.90;99.90
10812;DHT22;5458;51.496;7.334;2022-10-19T07:33:11;12.10;99.90
10812;DHT22;5458;51.496;7.334;2022-10-19T07:35:37;14.40;99.90
10812;DHT22;5458;51.496;7.334;2022-10-19T07:38:02;17.10;99.90
10812;DHT22;5458;51.496;7.334;2022-10-19T07:40:28;19.60;98.70
10812;DHT22;5458;51.496;7.334;2022-10-19T07:42:53;21.70;93.30
10812;DHT22;5458;51.496;7.334;2022-10-19T07:45:19;23.20;88.10
10812;DHT22;5458;51.496;7.334;2022-10-19T07:47:45;24.50;81.10
10812;DHT22;5458;51.496;7.334;2022-10-19T07:50:10;25.50;75.30
10812;DHT22;5458;51.496;7.334;2022-10-19T07:52:36;26.20;71.30
10812;DHT22;5458;51.496;7.334;2022-10-19T07:55:02;26.80;66.90
10812;DHT22;5458;51.496;7.334;2022-10-19T07:57:27;27.50;64.00
10812;DHT22;5458;51.496;7.334;2022-10-19T07:59:53;28.20;60.70
10812;DHT22;5458;51.496;7.334;2022-10-19T08:02:18;28.70;58.10
10812;DHT22;5458;51.496;7.334;2022-10-19T08:04:44;29.10;56.90
10812;DHT22;5458;51.496;7.334;2022-10-19T08:07:10;29.40;55.80
10812;DHT22;5458;51.496;7.334;2022-10-19T08:09:36;29.90;54.40
10812;DHT22;5458;51.496;7.334;2022-10-19T08:12:03;30.50;53.20
10812;DHT22;5458;51.496;7.334;2022-10-19T08:14:28;30.90;51.80
10812;DHT22;5458;51.496;7.334;2022-10-19T08:16:54;30.90;50.80
10812;DHT22;5458;51.496;7.334;2022-10-19T08:19:19;30.40;51.10
10812;DHT22;5458;51.496;7.334;2022-10-19T08:21:47;30.40;51.60
10812;DHT22;5458;51.496;7.334;2022-10-19T08:24:14;30.90;50.70
10812;DHT22;5458;51.496;7.334;2022-10-19T08:26:40;31.40;49.80
10812;DHT22;5458;51.496;7.334;2022-10-19T08:29:15;31.90;49.20
10812;DHT22;5458;51.496;7.334;2022-10-19T08:31:42;32.40;48.50
10812;DHT22;5458;51.496;7.334;2022-10-19T08:34:09;32.60;47.60
10812;DHT22;5458;51.496;7.334;2022-10-19T08:36:35;32.50;47.00
10812;DHT22;5458;51.496;7.334;2022-10-19T08:39:06;32.50;46.60
10812;DHT22;5458;51.496;7.334;2022-10-19T08:41:56;32.80;46.70
10812;DHT22;5458;51.496;7.334;2022-10-19T08:45:03;33.20;46.40
10812;DHT22;5458;51.496;7.334;2022-10-19T08:50:18;33.70;44.80
10812;DHT22;5458;51.496;7.334;2022-10-19T08:52:48;33.90;45.00
10812;DHT22;5458;51.496;7.334;2022-10-19T08:55:19;34.10;43.40
10812;DHT22;5458;51.496;7.334;2022-10-19T08:58:05;34.00;43.60
10812;DHT22;5458;51.496;7.334;2022-10-19T09:03:30;34.10;44.00
10812;DHT22;5458;51.496;7.334;2022-10-19T09:06:11;34.10;43.30
10812;DHT22;5458;51.496;7.334;2022-10-19T09:08:45;33.90;43.10
10812;DHT22;5458;51.496;7.334;2022-10-19T09:11:11;33.70;43.50
10812;DHT22;5458;51.496;7.334;2022-10-19T09:13:45;33.80;43.40
10812;DHT22;5458;51.496;7.334;2022-10-19T09:16:14;33.40;43.40
10812;DHT22;5458;51.496;7.334;2022-10-19T09:18:41;32.80;44.50
10812;DHT22;5458;51.496;7.334;2022-10-19T09:24:26;31.10;45.90
10812;DHT22;5458;51.496;7.334;2022-10-19T09:26:56;30.00;47.70
10812;DHT22;5458;51.496;7.334;2022-10-19T09:29:36;28.20;49.80
10812;DHT22;5458;51.496;7.334;2022-10-19T09:32:09;26.60;52.10
10812;DHT22;5458;51.496;7.334;2022-10-19T09:34:45;24.80;54.70
10812;DHT22;5458;51.496;7.334;2022-10-19T09:37:13;23.20;58.10
10812;DHT22;5458;51.496;7.334;2022-10-19T09:39:39;21.90;60.90
10812;DHT22;5458;51.496;7.334;2022-10-19T09:42:12;20.80;61.80
10812;DHT22;5458;51.496;7.334;2022-10-19T09:44:42;19.70;66.50
10812;DHT22;5458;51.496;7.334;2022-10-19T09:47:28;19.10;69.30
10812;DHT22;5458;51.496;7.334;2022-10-19T09:50:20;18.80;72.90
10812;DHT22;5458;51.496;7.334;2022-10-19T09:52:47;18.50;73.90
10812;DHT22;5458;51.496;7.334;2022-10-19T09:57:50;18.10;78.20
10812;DHT22;5458;51.496;7.334;2022-10-19T10:00:25;18.20;79.90
10812;DHT22;5458;51.496;7.334;2022-10-19T10:02:55;18.30;81.00
10812;DHT22;5458;51.496;7.334;2022-10-19T10:07:55;18.40;86.00
10812;DHT22;5458;51.496;7.334;2022-10-19T10:10:27;18.20;82.00
10812;DHT22;5458;51.496;7.334;2022-10-19T10:12:54;18.20;85.90
10812;DHT22;5458;51.496;7.334;2022-10-19T10:15:25;18.30;86.50
10812;DHT22;5458;51.496;7.334;2022-10-19T10:17:52;18.40;85.00
10812;DHT22;5458;51.496;7.334;2022-10-19T10:20:26;18.10;84.40
10812;DHT22;5458;51.496;7.334;2022-10-19T10:25:26;18.00;88.60
10812;DHT22;5458;51.496;7.334;2022-10-19T10:28:18;18.00;86.90
10812;DHT22;5458;51.496;7.334;2022-10-19T10:30:44;17.90;85.30
10812;DHT22;5458;51.496;7.334;2022-10-19T10:33:18;17.90;84.60
10812;DHT22;5458;51.496;7.334;2022-10-19T10:35:49;17.90;85.10
10812;DHT22;5458;51.496;7.334;2022-10-19T10:38:22;17.90;85.80
10812;DHT22;5458;51.496;7.334;2022-10-19T10:40:55;17.80;84.70
10812;DHT22;5458;51.496;7.334;2022-10-19T10:43:28;17.60;86.90
10812;DHT22;5458;51.496;7.334;2022-10-19T10:46:03;17.50;86.60
10812;DHT22;5458;51.496;7.334;2022-10-19T10:48:39;17.60;87.70
10812;DHT22;5458;51.496;7.334;2022-10-19T10:51:20;17.40;88.50
10812;DHT22;5458;51.496;7.334;2022-10-19T10:53:48;17.30;88.50
10812;DHT22;5458;51.496;7.334;2022-10-19T10:56:28;17.20;88.30
10812;DHT22;5458;51.496;7.334;2022-10-19T10:59:14;17.00;89.30
10812;DHT22;5458;51.496;7.334;2022-10-19T11:02:00;16.80;90.90
10812;DHT22;5458;51.496;7.334;2022-10-19T11:04:34;16.90;91.90
10812;DHT22;5458;51.496;7.334;2022-10-19T11:07:11;16.80;92.20
10812;DHT22;5458;51.496;7.334;2022-10-19T11:09:43;16.90;93.30
10812;DHT22;5458;51.496;7.334;2022-10-19T11:12:13;17.00;93.50
10812;DHT22;5458;51.496;7.334;2022-10-19T11:15:18;17.10;92.80
10812;DHT22;5458;51.496;7.334;2022-10-19T11:20:42;17.30;92.90
10812;DHT22;5458;51.496;7.334;2022-10-19T11:23:18;17.20;92.20
10812;DHT22;5458;51.496;7.334;2022-10-19T11:26:00;17.30;92.40
10812;DHT22;5458;51.496;7.334;2022-10-19T11:29:11;17.30;92.00
10812;DHT22;5458;51.496;7.334;2022-10-19T11:38:02;17.10;91.40
10812;DHT22;5458;51.496;7.334;2022-10-19T11:42:54;17.00;91.00
10812;DHT22;5458;51.496;7.334;2022-10-19T11:45:46;16.90;90.90
10812;DHT22;5458;51.496;7.334;2022-10-19T11:50:57;16.90;90.50
10812;DHT22;5458;51.496;7.334;2022-10-19T11:53:51;16.80;90.80
10812;DHT22;5458;51.496;7.334;2022-10-19T12:02:38;17.00;91.70
10812;DHT22;5458;51.496;7.334;2022-10-19T12:05:12;17.10;92.00
10812;DHT22;5458;51.496;7.334;2022-10-19T12:07:55;17.10;91.60
10812;DHT22;5458;51.496;7.334;2022-10-19T12:10:39;17.10;91.70
10812;DHT22;5458;51.496;7.334;2022-10-19T12:13:20;17.10;91.50
10812;DHT22;5458;51.496;7.334;2022-10-19T12:15:52;17.10;91.60
10812;DHT22;5458;51.496;7.334;2022-10-19T12:18:40;17.00;91.40
10812;DHT22;5458;51.496;7.334;2022-10-19T12:21:27;17.00;91.60
10812;DHT22;5458;51.496;7.334;2022-10-19T12:24:01;16.80;91.90
10812;DHT22;5458;51.496;7.334;2022-10-19T12:26:31;16.70;92.10
10812;DHT22;5458;51.496;7.334;2022-10-19T12:29:02;16.60;92.40
10812;DHT22;5458;51.496;7.334;2022-10-19T12:31:28;16.60;92.30
10812;DHT22;5458;51.496;7.334;2022-10-19T12:39:36;16.50;92.80
10812;DHT22;5458;51.496;7.334;2022-10-19T12:47:23;16.50;93.00
10812;DHT22;5458;51.496;7.334;2022-10-19T12:49:56;16.60;93.20
10812;DHT22;5458;51.496;7.334;2022-10-19T12:57:43;16.60;92.80
10812;DHT22;5458;51.496;7.334;2022-10-19T13:00:24;16.70;93.10
10812;DHT22;5458;51.496;7.334;2022-10-19T13:03:14;16.80;93.20
10812;DHT22;5458;51.496;7.334;2022-10-19T13:05:41;17.00;93.00
10812;DHT22;5458;51.496;7.334;2022-10-19T13:08:06;17.00;92.70
10812;DHT22;5458;51.496;7.334;2022-10-19T13:10:33;16.90;92.90
10812;DHT22;5458;51.496;7.334;2022-10-19T13:12:59;17.00;93.30
10812;DHT22;5458;51.496;7.334;2022-10-19T13:15:49;17.00;93.30
10812;DHT22;5458;51.496;7.334;2022-10-19T13:24:26;17.10;92.80
10812;DHT22;5458;51.496;7.334;2022-10-19T13:32:34;17.10;93.00
10812;DHT22;5458;51.496;7.334;2022-10-19T13:38:22;17.00;94.00
10812;DHT22;5458;51.496;7.334;2022-10-19T13:43:17;16.90;94.10
10812;DHT22;5458;51.496;7.334;2022-10-19T13:45:58;17.00;94.30
10812;DHT22;5458;51.496;7.334;2022-10-19T13:56:44;17.00;94.10
10812;DHT22;5458;51.496;7.334;2022-10-19T13:59:27;17.10;94.40
10812;DHT22;5458;51.496;7.334;2022-10-19T14:05:27;17.00;94.30
10812;DHT22;5458;51.496;7.334;2022-10-19T14:10:41;16.80;94.70
10812;DHT22;5458;51.496;7.334;2022-10-19T14:13:13;16.80;94.70
10812;DHT22;5458;51.496;7.334;2022-10-19T14:15:39;16.80;94.90
10812;DHT22;5458;51.496;7.334;2022-10-19T14:20:58;16.60;94.70
10812;DHT22;5458;51.496;7.334;2022-10-19T14:23:26;16.50;94.80
10812;DHT22;5458;51.496;7.334;2022-10-19T14:28:25;16.50;95.40
10812;DHT22;5458;51.496;7.334;2022-10-19T14:31:16;16.50;95.40
10812;DHT22;5458;51.496;7.334;2022-10-19T14:33:46;16.50;95.40
10812;DHT22;5458;51.496;7.334;2022-10-19T14:36:15;16.60;95.50
10812;DHT22;5458;51.496;7.334;2022-10-19T14:38:42;16.50;95.80
10812;DHT22;5458;51.496;7.334;2022-10-19T14:43:52;16.50;95.70
10812;DHT22;5458;51.496;7.334;2022-10-19T14:46:18;16.40;95.40
10812;DHT22;5458;51.496;7.334;2022-10-19T14:48:48;16.30;95.70
10812;DHT22;5458;51.496;7.334;2022-10-19T14:51:38;16.20;95.90
10812;DHT22;5458;51.496;7.334;2022-10-19T14:54:10;16.20;95.90
10812;DHT22;5458;51.496;7.334;2022-10-19T14:59:26;16.10;96.10
10812;DHT22;5458;51.496;7.334;2022-10-19T15:01:59;16.10;96.40
10812;DHT22;5458;51.496;7.334;2022-10-19T15:04:29;16.10;96.20
10812;DHT22;5458;51.496;7.334;2022-10-19T15:06:55;16.00;96.60
10812;DHT22;5458;51.496;7.334;2022-10-19T15:09:24;16.00;96.50
10812;DHT22;5458;51.496;7.334;2022-10-19T15:11:51;16.00;96.70
10812;DHT22;5458;51.496;7.334;2022-10-19T15:14:20;16.00;96.80
10812;DHT22;5458;51.496;7.334;2022-10-19T15:16:56;15.90;96.70
10812;DHT22;5458;51.496;7.334;2022-10-19T15:22:11;15.80;96.80
10812;DHT22;5458;51.496;7.334;2022-10-19T15:24:38;15.80;97.10
10812;DHT22;5458;51.496;7.334;2022-10-19T15:27:09;15.70;97.30
10812;DHT22;5458;51.496;7.334;2022-10-19T15:29:35;15.70;97.10
10812;DHT22;5458;51.496;7.334;2022-10-19T15:32:15;15.70;97.20
10812;DHT22;5458;51.496;7.334;2022-10-19T15:34:45;15.70;97.30
10812;DHT22;5458;51.496;7.334;2022-10-19T15:37:21;15.60;97.30
10812;DHT22;5458;51.496;7.334;2022-10-19T15:39:48;15.60;97.50
10812;DHT22;5458;51.496;7.334;2022-10-19T15:42:41;15.60;97.50
10812;DHT22;5458;51.496;7.334;2022-10-19T15:45:36;15.60;97.70
10812;DHT22;5458;51.496;7.334;2022-10-19T15:48:28;15.50;97.70
10812;DHT22;5458;51.496;7.334;2022-10-19T15:54:00;15.40;97.90
10812;DHT22;5458;51.496;7.334;2022-10-19T15:56:28;15.40;98.00
10812;DHT22;5458;51.496;7.334;2022-10-19T15:58:57;15.30;98.00
10812;DHT22;5458;51.496;7.334;2022-10-19T16:01:29;15.20;98.00
10812;DHT22;5458;51.496;7.334;2022-10-19T16:03:55;15.00;98.30
10812;DHT22;5458;51.496;7.334;2022-10-19T16:06:24;14.80;98.60
10812;DHT22;5458;51.496;7.334;2022-10-19T16:08:50;14.80;98.80
10812;DHT22;5458;51.496;7.334;2022-10-19T16:11:19;14.80;99.00
10812;DHT22;5458;51.496;7.334;2022-10-19T16:13:45;14.80;99.00
10812;DHT22;5458;51.496;7.334;2022-10-19T16:16:14;14.70;99.00
10812;DHT22;5458;51.496;7.334;2022-10-19T16:18:45;14.70;99.10
10812;DHT22;5458;51.496;7.334;2022-10-19T16:21:11;14.50;99.10
10812;DHT22;5458;51.496;7.334;2022-10-19T16:23:36;14.40;99.30
10812;DHT22;5458;51.496;7.334;2022-10-19T16:26:04;14.40;99.70
10812;DHT22;5458;51.496;7.334;2022-10-19T16:28:29;14.40;99.70
10812;DHT22;5458;51.496;7.334;2022-10-19T16:30:55;14.40;99.80
10812;DHT22;5458;51.496;7.334;2022-10-19T16:33:21;14.40;99.90
10812;DHT22;5458;51.496;7.334;2022-10-19T16:35:46;14.40;99.90
10812;DHT22;5458;51.496;7.334;2022-10-19T16:38:12;14.30;99.90
10812;DHT22;5458;51.496;7.334;2022-10-19T16:40:38;14.30;99.90
10812;DHT22;5458;51.496;7.334;2022-10-19T16:43:03;14.20;99.90
10812;DHT22;5458;51.496;7.334;2022-10-19T16:45:29;14.20;99.90
10812;DHT22;5458;51.496;7.334;2022-10-19T16:47:55;14.10;99.90
10812;DHT22;5458;51.496;7.334;2022-10-19T16:50:21;14.00;99.90
10812;DHT22;5458;51.496;7.334;2022-10-19T16:52:47;14.00;99.90
10812;DHT22;5458;51.496;7.334;2022-10-19T16:55:12;14.00;99.90
10812;DHT22;5458;51.496;7.334;2022-10-19T16:57:38;13.90;99.90
10812;DHT22;5458;51.496;7.334;2022-10-19T17:00:05;13.90;99.90
10812;DHT22;5458;51.496;7.334;2022-10-19T17:02:31;13.80;99.90
10812;DHT22;5458;51.496;7.334;2022-10-19T17:04:57;13.80;99.90
10812;DHT22;5458;51.496;7.334;2022-10-19T17:07:23;13.80;99.90
10812;DHT22;5458;51.496;7.334;2022-10-19T17:09:49;13.70;99.90
10812;DHT22;5458;51.496;7.334;2022-10-19T17:12:15;13.70;99.90
10812;DHT22;5458;51.496;7.334;2022-10-19T17:14:41;13.70;99.90
10812;DHT22;5458;51.496;7.334;2022-10-19T17:17:09;13.70;99.90
10812;DHT22;5458;51.496;7.334;2022-10-19T17:19:35;13.60;99.90
10812;DHT22;5458;51.496;7.334;2022-10-19T17:22:01;13.60;99.90
10812;DHT22;5458;51.496;7.334;2022-10-19T17:24:28;13.50;99.90
10812;DHT22;5458;51.496;7.334;2022-10-19T17:26:53;13.40;99.90
10812;DHT22;5458;51.496;7.334;2022-10-19T17:29:20;13.40;99.90
10812;DHT22;5458;51.496;7.334;2022-10-19T17:31:46;13.40;99.90
10812;DHT22;5458;51.496;7.334;2022-10-19T17:34:12;13.40;99.90
10812;DHT22;5458;51.496;7.334;2022-10-19T17:36:39;13.30;99.90
10812;DHT22;5458;51.496;7.334;2022-10-19T17:39:08;13.30;99.90
10812;DHT22;5458;51.496;7.334;2022-10-19T17:41:34;13.30;99.90
10812;DHT22;5458;51.496;7.334;2022-10-19T17:43:59;13.30;99.90
10812;DHT22;5458;51.496;7.334;2022-10-19T17:46:29;13.20;99.90
10812;DHT22;5458;51.496;7.334;2022-10-19T17:48:56;13.20;99.90
10812;DHT22;5458;51.496;7.334;2022-10-19T17:51:24;13.20;99.90
10812;DHT22;5458;51.496;7.334;2022-10-19T17:53:53;13.20;99.90
10812;DHT22;5458;51.496;7.334;2022-10-19T17:56:20;13.20;99.90
10812;DHT22;5458;51.496;7.334;2022-10-19T17:58:47;13.20;99.90
10812;DHT22;5458;51.496;7.334;2022-10-19T18:01:14;13.20;99.90
10812;DHT22;5458;51.496;7.334;2022-10-19T18:03:40;13.20;99.90
10812;DHT22;5458;51.496;7.334;2022-10-19T18:06:11;13.20;99.90
10812;DHT22;5458;51.496;7.334;2022-10-19T18:08:42;13.10;99.90
10812;DHT22;5458;51.496;7.334;2022-10-19T18:11:11;13.10;99.90
10812;DHT22;5458;51.496;7.334;2022-10-19T18:13:38;13.10;99.90
10812;DHT22;5458;51.496;7.334;2022-10-19T18:16:12;13.10;99.90
10812;DHT22;5458;51.496;7.334;2022-10-19T18:18:40;13.10;99.90